Time;durP1;ratioP1;P1;durP2;ratioP2;P2;SDS_P1;SDS_P2;PMS_P1;PMS_P2;Temp;Humidity;BMP_temperature;BMP_pressure;BME280_temperature;BME280_humidity;BME280_pressure;Samples;Min_cycle;Max_cycle;Signal;HPM_P1;HPM_P2
2022/11/11 00:02:18;;;;;;;12.37;7.90;;;;;;;19.85;56.14;101767.13;5071308;28;20630;-65
2022/11/11 00:04:44;;;;;;;9.70;6.40;;;;;;;19.95;55.39;101762.97;5070905;28;20203;-66
2022/11/11 00:07:09;;;;;;;12.73;7.10;;;;;;;20.07;55.12;101766.72;5071348;28;20661;-65
2022/11/11 00:09:35;;;;;;;12.03;7.00;;;;;;;20.14;55.25;101766.13;5070793;28;20155;-65
2022/11/11 00:12:00;;;;;;;10.93;7.20;;;;;;;20.12;55.68;101766.47;5071305;28;20171;-65
2022/11/11 00:14:26;;;;;;;10.20;6.90;;;;;;;20.07;56.57;101768.72;5053465;28;20155;-64
2022/11/11 00:25:07;;;;;;;10.37;6.90;;;;;;;20.06;56.87;101773.63;5041105;28;20989;-65
2022/11/11 00:27:33;;;;;;;11.73;6.80;;;;;;;20.09;57.28;101772.94;5053275;28;20455;-65
2022/11/11 00:29:58;;;;;;;12.00;6.70;;;;;;;20.07;57.55;101765.88;5070679;28;20421;-65
2022/11/11 00:32:29;;;;;;;12.60;6.60;;;;;;;20.06;57.66;101762.16;5071018;28;20459;-65
2022/11/11 00:37:40;;;;;;;9.50;6.23;;;;;;;20.07;57.94;101769.59;5041620;28;20419;-65
2022/11/11 00:40:06;;;;;;;17.43;7.20;;;;;;;20.07;57.93;101780.19;5030170;28;20410;-65
2022/11/11 00:42:31;;;;;;;11.47;7.00;;;;;;;20.10;58.20;101780.34;5050741;28;20172;-64
2022/11/11 00:44:57;;;;;;;14.77;6.30;;;;;;;20.08;58.07;101784.78;5016086;28;20180;-65
2022/11/11 00:52:54;;;;;;;13.53;5.80;;;;;;;20.11;58.36;101775.47;5060885;28;20467;-65
2022/11/11 00:55:20;;;;;;;12.30;6.80;;;;;;;20.12;58.06;101777.13;5055540;28;20931;-64
2022/11/11 00:57:45;;;;;;;9.27;5.90;;;;;;;20.07;58.41;101783.06;5070442;28;20272;-66
2022/11/11 01:00:11;;;;;;;9.90;5.83;;;;;;;20.09;58.31;101784.41;5072515;28;20502;-64
2022/11/11 01:02:37;;;;;;;11.97;6.13;;;;;;;20.13;58.11;101796.84;5090405;28;20170;-65
2022/11/11 01:05:02;;;;;;;12.13;6.23;;;;;;;20.13;58.54;101790.28;5089828;28;20468;-64
2022/11/11 01:07:28;;;;;;;10.60;6.40;;;;;;;20.11;58.63;101793.50;5090520;28;20206;-64
2022/11/11 01:09:53;;;;;;;8.57;6.10;;;;;;;20.13;58.26;101796.00;5089969;28;20170;-65
2022/11/11 01:12:19;;;;;;;10.87;6.30;;;;;;;20.14;58.62;101800.53;5079360;28;20175;-65
2022/11/11 01:14:44;;;;;;;10.80;6.23;;;;;;;20.11;58.42;101793.50;5071849;28;20171;-65
2022/11/11 01:17:09;;;;;;;11.97;6.17;;;;;;;20.10;58.63;101799.56;5068405;28;20665;-65
2022/11/11 01:19:35;;;;;;;10.30;5.63;;;;;;;20.12;58.48;101785.75;5068565;28;20179;-64
2022/11/11 01:22:00;;;;;;;9.93;5.90;;;;;;;20.10;58.73;101783.22;5068376;28;20167;-64
2022/11/11 01:24:26;;;;;;;10.83;5.77;;;;;;;20.13;58.87;101779.66;5070533;28;20173;-64
2022/11/11 01:26:51;;;;;;;10.20;6.23;;;;;;;20.12;58.75;101777.94;5067804;28;20175;-64
2022/11/11 01:29:17;;;;;;;8.77;5.10;;;;;;;20.08;58.69;101785.63;5083620;28;20174;-65
2022/11/11 01:31:43;;;;;;;10.70;6.27;;;;;;;20.05;58.30;101805.50;5072254;28;20157;-66
2022/11/11 01:34:08;;;;;;;10.67;6.73;;;;;;;19.98;58.72;101803.25;5055825;28;20250;-65
2022/11/11 01:36:34;;;;;;;13.17;6.23;;;;;;;19.96;58.94;101802.75;5091535;28;20476;-66
2022/11/11 01:38:59;;;;;;;8.17;5.67;;;;;;;19.95;58.99;101808.81;5072811;28;20519;-65
2022/11/11 01:41:33;;;;;;;8.43;5.00;;;;;;;19.95;59.14;101823.16;5055799;28;20652;-65
2022/11/11 01:44:11;;;;;;;9.10;5.40;;;;;;;19.94;59.00;101822.34;5091344;28;20188;-65
2022/11/11 01:46:41;;;;;;;7.67;5.07;;;;;;;19.93;59.12;101814.94;5057652;28;20900;-65
2022/11/11 01:49:30;;;;;;;8.87;5.60;;;;;;;19.94;59.18;101813.75;5073060;28;20786;-65
2022/11/11 01:52:08;;;;;;;10.23;6.10;;;;;;;19.92;59.40;101816.09;5072858;28;20841;-65
2022/11/11 01:54:37;;;;;;;9.40;5.03;;;;;;;19.89;59.42;101808.22;5091086;28;20403;-65
2022/11/11 01:57:44;;;;;;;7.17;4.83;;;;;;;19.88;59.51;101809.44;5072945;28;20401;-65
2022/11/11 02:00:37;;;;;;;13.90;5.20;;;;;;;19.86;59.79;101797.47;5090049;28;20432;-66
2022/11/11 02:03:06;;;;;;;9.87;5.37;;;;;;;19.82;59.73;101799.34;5086850;28;20413;-68
2022/11/11 02:05:41;;;;;;;8.43;5.03;;;;;;;19.79;59.84;101796.34;5059196;28;20432;-67
2022/11/11 02:08:09;;;;;;;7.70;5.30;;;;;;;19.78;60.03;101801.28;5095213;28;20448;-68
2022/11/11 02:10:35;;;;;;;10.37;5.83;;;;;;;19.80;60.10;101804.59;5065740;28;20476;-68
2022/11/11 02:15:44;;;;;;;9.57;5.53;;;;;;;19.78;60.18;101815.59;5085619;28;20169;-67
2022/11/11 02:18:09;;;;;;;6.30;4.57;;;;;;;19.76;60.17;101806.50;5101386;28;20400;-68
2022/11/11 02:20:37;;;;;;;10.30;5.43;;;;;;;19.75;60.42;101809.72;5066466;28;20181;-68
2022/11/11 02:23:12;;;;;;;8.23;4.80;;;;;;;19.75;60.35;101810.56;5083125;28;20535;-67
2022/11/11 02:25:38;;;;;;;5.90;4.57;;;;;;;19.75;60.53;101818.31;5083169;28;20416;-67
2022/11/11 02:28:04;;;;;;;8.03;4.93;;;;;;;19.73;60.67;101812.09;5082564;28;20448;-67
2022/11/11 02:30:30;;;;;;;9.73;5.07;;;;;;;19.72;60.60;101802.66;5081975;28;20174;-68
2022/11/11 02:32:55;;;;;;;10.20;5.70;;;;;;;19.71;60.50;101803.84;5081780;28;20412;-67
2022/11/11 02:35:28;;;;;;;9.70;5.23;;;;;;;19.71;60.64;101794.44;5100022;28;20174;-67
2022/11/11 02:37:54;;;;;;;7.83;4.97;;;;;;;19.70;60.71;101799.31;5066092;28;20255;-67
2022/11/11 02:40:37;;;;;;;10.80;4.87;;;;;;;19.71;60.69;101805.91;5082551;28;20894;-67
2022/11/11 02:43:03;;;;;;;7.40;4.93;;;;;;;19.72;60.74;101813.31;5084189;28;20178;-68
2022/11/11 02:45:28;;;;;;;8.37;5.40;;;;;;;19.69;60.83;101811.97;5082226;28;20477;-67
2022/11/11 02:47:54;;;;;;;6.80;5.03;;;;;;;19.69;60.67;101820.56;5100586;28;20458;-67
2022/11/11 02:50:19;;;;;;;7.47;4.97;;;;;;;19.68;60.87;101824.63;5082068;28;20723;-67
2022/11/11 02:52:44;;;;;;;6.70;4.83;;;;;;;19.69;60.82;101826.31;5097043;28;20762;-67
2022/11/11 02:55:10;;;;;;;7.97;5.50;;;;;;;19.67;60.91;101819.25;5100181;28;20179;-67
2022/11/11 02:57:35;;;;;;;8.23;5.50;;;;;;;19.67;60.98;101822.13;5082359;28;20166;-67
2022/11/11 03:00:01;;;;;;;9.03;4.80;;;;;;;19.67;60.99;101825.81;5082406;28;20178;-68
2022/11/11 03:02:27;;;;;;;13.50;4.63;;;;;;;19.67;60.80;101819.25;5065598;28;20209;-67
2022/11/11 03:04:54;;;;;;;7.43;4.53;;;;;;;19.65;61.06;101815.88;5081669;28;20197;-67
2022/11/11 03:07:19;;;;;;;6.43;4.00;;;;;;;19.66;61.18;101815.53;5100493;28;20193;-67
2022/11/11 03:09:45;;;;;;;7.00;4.47;;;;;;;19.65;61.18;101810.16;5082512;28;20483;-67
2022/11/11 03:12:10;;;;;;;7.87;4.63;;;;;;;19.66;61.02;101812.66;5097066;28;20223;-67
2022/11/11 03:14:36;;;;;;;6.27;4.23;;;;;;;19.66;61.28;101806.94;5081913;28;20186;-67
2022/11/11 03:19:45;;;;;;;7.63;4.50;;;;;;;19.64;61.17;101795.00;5097980;28;20205;-67
2022/11/11 03:22:11;;;;;;;9.07;4.83;;;;;;;19.64;61.15;101797.88;5078337;28;20397;-67
2022/11/11 03:27:20;;;;;;;6.70;4.63;;;;;;;19.61;61.30;101801.44;5093611;28;20286;-68
2022/11/11 03:29:45;;;;;;;10.63;5.17;;;;;;;19.62;61.50;101797.38;5097264;28;20417;-67
2022/11/11 03:32:11;;;;;;;10.50;4.93;;;;;;;19.61;61.27;101801.44;5079429;28;20177;-67
2022/11/11 03:34:36;;;;;;;7.90;5.30;;;;;;;19.61;61.28;101807.16;5078875;28;20166;-68
2022/11/11 03:39:50;;;;;;;6.40;4.37;;;;;;;19.63;61.44;101796.19;5095491;28;20288;-67
2022/11/11 03:42:15;;;;;;;7.90;4.70;;;;;;;19.59;61.40;101797.25;5096835;28;20405;-67
2022/11/11 03:44:41;;;;;;;7.53;4.57;;;;;;;19.62;61.41;101803.09;5061497;28;20181;-68
2022/11/11 03:47:06;;;;;;;6.33;4.50;;;;;;;19.59;61.42;101803.81;5096973;28;20187;-67
2022/11/11 03:49:31;;;;;;;6.77;4.60;;;;;;;19.62;61.42;101814.56;5077795;28;20527;-67
2022/11/11 03:51:57;;;;;;;6.90;3.83;;;;;;;19.63;61.43;101816.25;5096427;28;20247;-67
2022/11/11 03:54:23;;;;;;;8.73;4.33;;;;;;;19.61;61.43;101818.63;5096658;28;20185;-67
2022/11/11 03:56:48;;;;;;;7.60;4.80;;;;;;;19.59;61.52;101821.00;5097026;28;20166;-67
2022/11/11 03:59:14;;;;;;;5.53;4.07;;;;;;;19.58;61.42;101812.75;5096379;28;20177;-67
2022/11/11 04:16:04;;;;;;;5.17;4.03;;;;;;;19.62;61.34;101843.22;5080564;28;20399;-67
2022/11/11 04:18:05;;;;;;;5.50;3.90;;;;;;;19.63;61.42;101852.66;5079948;28;20407;-67
2022/11/11 04:23:15;;;;;;;7.30;4.00;;;;;;;19.65;61.56;101856.00;5095805;28;20946;-67
2022/11/11 04:25:49;;;;;;;8.80;5.07;;;;;;;19.62;61.51;101863.25;5077355;28;20417;-67
2022/11/11 04:30:59;;;;;;;7.10;4.30;;;;;;;19.62;61.54;101866.13;5065643;28;21036;-67
2022/11/11 04:33:24;;;;;;;7.80;3.90;;;;;;;19.62;61.54;101866.13;5076786;28;20419;-67
2022/11/11 04:35:50;;;;;;;7.53;4.30;;;;;;;19.63;61.57;101866.97;5059607;28;20177;-67
2022/11/11 04:41:02;;;;;;;5.67;4.13;;;;;;;19.62;61.66;101871.84;5079261;28;20188;-67
2022/11/11 04:43:28;;;;;;;7.10;4.50;;;;;;;19.62;61.61;101880.44;5094746;28;20584;-67
2022/11/11 04:45:57;;;;;;;7.93;4.03;;;;;;;19.62;61.72;101888.22;5076713;28;20432;-67
2022/11/11 04:48:23;;;;;;;5.53;3.90;;;;;;;19.59;61.74;101895.50;5093270;28;20540;-67
2022/11/11 04:50:49;;;;;;;6.83;4.17;;;;;;;19.66;61.58;101892.91;5076392;28;20405;-67
2022/11/11 04:53:14;;;;;;;5.00;4.10;;;;;;;19.66;61.41;101901.50;5095244;28;20169;-67
2022/11/11 04:58:27;;;;;;;6.43;4.17;;;;;;;19.65;61.75;101887.50;5079239;28;20209;-67
2022/11/11 05:00:52;;;;;;;6.30;3.67;;;;;;;19.62;61.86;101883.31;5076600;28;20416;-67
2022/11/11 05:03:20;;;;;;;4.67;3.67;;;;;;;19.62;61.75;101896.81;5086388;28;20428;-67
2022/11/11 05:08:57;;;;;;;4.00;3.20;;;;;;;19.65;61.66;101899.81;5058775;28;20452;-67
2022/11/11 05:11:34;;;;;;;8.00;4.20;;;;;;;19.63;61.61;101896.47;5079279;28;20491;-67
2022/11/11 05:22:28;;;;;;;5.93;3.30;;;;;;;19.65;61.69;101916.16;5085120;28;20471;-67
2022/11/11 05:27:38;;;;;;;5.57;3.50;;;;;;;19.63;62.14;101927.16;5073601;28;20456;-67
2022/11/11 05:30:04;;;;;;;5.00;3.47;;;;;;;19.63;61.77;101936.59;5071820;28;20425;-67
2022/11/11 05:32:30;;;;;;;4.93;3.67;;;;;;;19.64;61.83;101929.66;5073841;28;20175;-67
2022/11/11 05:34:55;;;;;;;4.57;3.00;;;;;;;19.65;61.62;101928.47;5071929;28;20417;-67
2022/11/11 05:37:21;;;;;;;4.67;3.93;;;;;;;19.65;61.56;101931.34;5073218;28;20186;-67
2022/11/11 05:39:46;;;;;;;4.67;3.63;;;;;;;19.61;61.98;101938.13;5072007;28;20174;-67
2022/11/11 05:42:11;;;;;;;5.00;3.83;;;;;;;19.64;61.81;101938.28;5054940;28;20174;-67
2022/11/11 05:44:37;;;;;;;7.60;3.70;;;;;;;19.64;61.80;101931.69;5072711;28;20156;-67
2022/11/11 05:47:02;;;;;;;4.60;3.27;;;;;;;19.65;61.95;101933.34;5058403;28;20259;-67
2022/11/11 05:49:28;;;;;;;5.10;3.60;;;;;;;19.59;61.86;101941.34;5076147;28;20174;-67
2022/11/11 05:51:54;;;;;;;5.70;4.07;;;;;;;19.66;61.76;101943.66;5075033;28;20306;-67
2022/11/11 05:54:21;;;;;;;6.97;4.03;;;;;;;19.62;61.82;101949.22;5094174;28;20194;-67
2022/11/11 05:56:47;;;;;;;5.03;3.10;;;;;;;19.65;61.73;101954.25;5075549;28;20416;-68
2022/11/11 05:59:13;;;;;;;5.90;3.67;;;;;;;19.67;61.64;101948.19;5074860;28;20190;-67
2022/11/11 06:01:38;;;;;;;5.77;3.37;;;;;;;19.62;61.91;101957.81;5075044;28;20453;-67
2022/11/11 06:04:04;;;;;;;6.37;4.07;;;;;;;19.64;61.97;101949.72;5081466;28;20641;-67
2022/11/11 06:06:30;;;;;;;5.70;3.57;;;;;;;19.63;62.03;101958.66;5058035;28;20504;-67
2022/11/11 06:08:55;;;;;;;4.90;3.50;;;;;;;19.62;61.78;101959.84;5075006;28;20189;-67
2022/11/11 06:11:21;;;;;;;4.90;3.10;;;;;;;19.66;61.69;101955.13;5093149;28;20177;-67
2022/11/11 06:13:47;;;;;;;6.73;4.00;;;;;;;19.61;61.92;101956.16;5074934;28;20154;-67
2022/11/11 06:16:12;;;;;;;5.17;3.67;;;;;;;19.61;61.76;101952.47;5075105;28;20186;-67
2022/11/11 06:18:38;;;;;;;5.40;3.40;;;;;;;19.60;61.97;101954.47;5074767;28;20838;-67
2022/11/11 06:21:03;;;;;;;6.47;3.80;;;;;;;19.60;62.15;101950.75;5092660;28;20180;-67
2022/11/11 06:23:29;;;;;;;4.83;3.50;;;;;;;19.58;62.10;101956.84;5092649;28;20171;-67
2022/11/11 06:26:12;;;;;;;5.20;3.50;;;;;;;19.59;62.11;101951.94;5092775;28;20155;-67
2022/11/11 06:28:51;;;;;;;5.20;3.83;;;;;;;19.60;62.04;101954.47;5077151;28;20227;-67
2022/11/11 06:31:22;;;;;;;4.93;3.40;;;;;;;19.57;62.10;101960.88;5074904;28;20419;-64
2022/11/11 06:33:47;;;;;;;5.47;3.60;;;;;;;19.63;61.90;101959.53;5074905;28;20418;-65
2022/11/11 06:36:15;;;;;;;5.10;3.47;;;;;;;19.64;61.87;101955.47;5092515;28;20417;-64
2022/11/11 06:38:40;;;;;;;6.40;3.80;;;;;;;19.63;61.90;101959.53;5074671;28;20181;-65
2022/11/11 06:41:06;;;;;;;5.60;3.90;;;;;;;19.55;62.34;101965.28;5091775;28;20895;-65
2022/11/11 06:43:32;;;;;;;5.10;3.23;;;;;;;19.56;62.14;101959.22;5089897;28;20170;-65
2022/11/11 06:45:57;;;;;;;5.93;3.20;;;;;;;19.61;62.02;101972.50;5091461;28;20170;-65
2022/11/11 06:48:24;;;;;;;4.20;3.33;;;;;;;19.61;61.77;101976.19;5092830;28;20232;-65
2022/11/11 06:50:50;;;;;;;4.80;3.07;;;;;;;19.58;62.20;101973.19;5092806;28;20559;-65
2022/11/11 06:53:17;;;;;;;5.30;3.50;;;;;;;19.63;61.96;101976.72;5073864;28;20499;-64
2022/11/11 06:55:42;;;;;;;6.23;3.70;;;;;;;19.63;61.96;101975.84;5078430;28;20167;-67
2022/11/11 06:58:16;;;;;;;5.80;3.23;;;;;;;19.60;61.95;101980.25;5069860;28;20425;-67
2022/11/11 07:00:41;;;;;;;5.73;3.87;;;;;;;19.59;62.11;101975.72;5077493;28;20182;-67
2022/11/11 07:03:09;;;;;;;5.30;3.80;;;;;;;19.62;62.14;101985.66;5082805;28;20421;-68
2022/11/11 07:05:34;;;;;;;6.53;3.60;;;;;;;19.64;62.16;101984.13;5057486;28;20248;-67
2022/11/11 07:08:07;;;;;;;5.73;3.60;;;;;;;19.58;62.02;101979.78;5081823;28;20459;-67
2022/11/11 07:10:34;;;;;;;4.10;3.20;;;;;;;19.61;62.21;101983.97;5096629;28;20175;-67
2022/11/11 07:12:59;;;;;;;5.37;3.53;;;;;;;19.58;62.27;101991.25;5078051;28;20582;-67
2022/11/11 07:15:25;;;;;;;4.43;3.43;;;;;;;19.63;61.93;101993.06;5075798;28;20409;-68
2022/11/11 07:17:50;;;;;;;5.97;3.13;;;;;;;19.60;61.97;101991.72;5075932;28;20179;-67
2022/11/11 07:20:16;;;;;;;4.70;3.13;;;;;;;19.62;62.32;101988.50;5071586;28;20182;-67
2022/11/11 07:22:41;;;;;;;3.70;3.00;;;;;;;19.59;62.18;101998.63;5077830;28;20672;-67
2022/11/11 07:25:07;;;;;;;6.33;3.83;;;;;;;19.58;62.25;102007.56;5095907;28;20167;-67
2022/11/11 07:27:36;;;;;;;5.80;3.73;;;;;;;19.59;62.21;101997.78;5095022;28;20212;-67
2022/11/11 07:30:01;;;;;;;4.60;3.20;;;;;;;19.57;62.43;102003.84;5091538;28;20190;-68
2022/11/11 07:32:27;;;;;;;6.80;4.83;;;;;;;18.79;57.74;102006.56;5081356;28;20429;-68
2022/11/11 07:34:53;;;;;;;8.17;6.00;;;;;;;18.51;59.76;102006.13;5079635;28;20182;-68
2022/11/11 07:37:18;;;;;;;11.10;8.40;;;;;;;19.07;61.01;102007.81;5070710;28;20191;-68
2022/11/11 07:39:44;;;;;;;16.80;7.90;;;;;;;19.63;60.48;102004.50;5060764;28;20178;-67
2022/11/11 07:42:09;;;;;;;11.33;6.57;;;;;;;19.66;58.19;101998.09;5039991;28;20222;-67
2022/11/11 07:44:35;;;;;;;11.10;6.03;;;;;;;19.64;57.55;102007.03;5074780;28;20185;-66
2022/11/11 07:47:00;;;;;;;8.53;5.07;;;;;;;19.76;57.71;102001.38;5060553;28;20525;-67
2022/11/11 07:49:26;;;;;;;8.40;5.00;;;;;;;19.72;57.58;101999.56;5089576;28;20573;-66
2022/11/11 07:51:51;;;;;;;11.90;5.37;;;;;;;19.85;56.86;101996.44;5072401;28;20250;-66
2022/11/11 07:54:17;;;;;;;6.43;4.27;;;;;;;19.87;56.84;101990.34;5082239;28;20178;-67
2022/11/11 07:56:42;;;;;;;5.70;4.20;;;;;;;19.84;56.84;102006.22;5061623;28;20187;-67
2022/11/11 07:59:08;;;;;;;6.43;4.37;;;;;;;19.83;57.13;102009.44;5088082;28;20183;-66
2022/11/11 08:01:34;;;;;;;7.77;4.37;;;;;;;19.80;57.06;101999.50;5074839;28;20232;-66
2022/11/11 08:04:00;;;;;;;12.67;4.30;;;;;;;19.79;57.02;101994.09;5075480;28;20460;-66
2022/11/11 08:06:25;;;;;;;8.70;4.13;;;;;;;19.80;56.83;101990.91;5058834;28;20224;-66
2022/11/11 08:08:50;;;;;;;8.80;4.30;;;;;;;19.81;56.84;101997.47;5092956;28;20202;-66
2022/11/11 08:11:16;;;;;;;7.10;4.60;;;;;;;19.81;56.85;101994.63;5093632;28;20175;-66
2022/11/11 08:13:43;;;;;;;8.20;4.60;;;;;;;19.80;56.68;101999.50;5040106;28;20177;-67
2022/11/11 08:16:13;;;;;;;7.10;4.57;;;;;;;19.80;56.69;102005.22;5059810;28;21009;-67
2022/11/11 08:18:39;;;;;;;13.40;5.40;;;;;;;20.10;56.98;102009.75;5077691;28;20483;-66
2022/11/11 08:21:05;;;;;;;11.43;6.00;;;;;;;20.29;56.00;102006.38;5088636;28;20428;-67
2022/11/11 08:23:33;;;;;;;10.77;6.40;;;;;;;20.18;56.24;102010.84;5070046;28;20189;-67
2022/11/11 08:26:03;;;;;;;12.33;7.17;;;;;;;20.12;55.53;102004.47;5073059;28;20267;-67
2022/11/11 08:28:29;;;;;;;9.87;6.80;;;;;;;20.20;56.61;102015.06;5071631;28;20946;-67
2022/11/11 08:30:54;;;;;;;11.80;6.40;;;;;;;20.25;57.17;102011.97;5071800;28;20539;-67
2022/11/11 08:33:20;;;;;;;11.30;6.70;;;;;;;20.05;57.85;102007.06;5040281;28;20437;-66
2022/11/11 08:35:46;;;;;;;10.00;5.77;;;;;;;20.08;58.62;102006.41;5075018;28;20197;-66
2022/11/11 08:38:12;;;;;;;8.73;5.80;;;;;;;20.25;57.98;102002.50;5083289;28;20428;-66
2022/11/11 08:40:38;;;;;;;10.30;6.13;;;;;;;20.21;58.64;102002.38;5076504;28;20206;-66
2022/11/11 08:43:03;;;;;;;7.23;5.00;;;;;;;20.24;58.34;101995.09;5089124;28;20420;-67
2022/11/11 08:45:29;;;;;;;11.20;6.37;;;;;;;20.13;59.04;101999.59;5065232;28;20182;-66
2022/11/11 08:47:54;;;;;;;12.60;5.53;;;;;;;20.21;59.28;101992.97;5079622;28;20213;-66
2022/11/11 08:50:20;;;;;;;12.53;4.73;;;;;;;20.23;59.32;102002.88;5076049;28;20175;-66
2022/11/11 08:52:49;;;;;;;9.63;5.20;;;;;;;20.15;59.55;101998.06;5074012;28;20577;-66
2022/11/11 08:55:14;;;;;;;8.60;5.07;;;;;;;20.00;59.53;102001.53;5063098;28;20179;-66
2022/11/11 08:57:40;;;;;;;9.53;5.73;;;;;;;19.92;59.13;101998.75;5094490;28;20449;-66
2022/11/11 09:00:06;;;;;;;9.00;4.90;;;;;;;19.86;58.19;102009.56;5086936;28;20175;-67
2022/11/11 09:02:31;;;;;;;7.43;5.30;;;;;;;19.82;58.42;102010.63;5065421;28;20209;-66
2022/11/11 09:04:57;;;;;;;6.97;4.73;;;;;;;19.75;58.42;102001.72;5085240;28;20452;-67
2022/11/11 09:07:22;;;;;;;8.27;5.03;;;;;;;19.76;57.69;102009.16;5069667;28;20210;-66
2022/11/11 09:09:47;;;;;;;8.33;5.17;;;;;;;19.73;58.16;102007.81;5042259;28;20187;-67
2022/11/11 09:12:13;;;;;;;8.63;5.60;;;;;;;19.78;58.17;102006.75;5073601;28;20196;-66
2022/11/11 09:14:38;;;;;;;10.13;5.43;;;;;;;19.82;58.30;102004.88;5075824;28;20174;-67
2022/11/11 09:17:05;;;;;;;11.90;5.43;;;;;;;19.84;58.29;102005.38;5079283;28;20190;-66
2022/11/11 09:19:30;;;;;;;9.33;5.20;;;;;;;19.84;58.27;102009.09;5061788;28;20659;-66
2022/11/11 09:21:55;;;;;;;9.50;4.97;;;;;;;19.84;58.47;102003.34;5081401;28;20441;-66
2022/11/11 09:24:21;;;;;;;8.20;4.70;;;;;;;19.83;58.74;102009.44;5071945;28;20182;-66
2022/11/11 09:26:48;;;;;;;12.03;5.00;;;;;;;19.83;58.73;102003.69;5064319;28;20186;-66
2022/11/11 09:29:13;;;;;;;8.77;5.30;;;;;;;19.80;59.00;102005.22;5072142;28;20198;-66
2022/11/11 09:31:39;;;;;;;5.63;3.53;;;;;;;19.79;58.99;102002.72;5077564;28;20906;-66
2022/11/11 09:34:05;;;;;;;8.37;4.23;;;;;;;19.80;59.38;102004.38;5073222;28;20175;-67
2022/11/11 09:36:31;;;;;;;6.20;4.10;;;;;;;19.80;59.22;102010.97;5079999;28;20187;-66
2022/11/11 09:38:57;;;;;;;8.83;4.97;;;;;;;19.79;59.44;102005.56;5039064;28;20417;-67
2022/11/11 09:41:57;;;;;;;8.00;4.83;;;;;;;19.81;59.45;102008.94;5051899;28;20187;-66
2022/11/11 09:44:50;;;;;;;6.80;4.70;;;;;;;19.79;59.41;102009.28;5059710;28;20195;-67
2022/11/11 09:47:43;;;;;;;8.23;4.70;;;;;;;19.77;59.87;102005.09;5067111;28;20558;-66
2022/11/11 09:50:08;;;;;;;7.57;4.47;;;;;;;19.77;60.02;102005.09;5077204;28;20404;-66
2022/11/11 09:52:42;;;;;;;7.90;4.23;;;;;;;19.77;59.95;102002.22;5082914;28;20470;-66
2022/11/11 09:55:19;;;;;;;6.40;4.27;;;;;;;19.78;59.87;102001.03;5070876;28;20165;-66
2022/11/11 09:57:48;;;;;;;6.70;4.60;;;;;;;19.79;59.98;101989.22;5066086;28;20408;-67
2022/11/11 10:00:17;;;;;;;7.57;4.23;;;;;;;19.75;59.96;101991.09;5045431;28;20417;-67
2022/11/11 10:02:44;;;;;;;5.50;3.93;;;;;;;19.75;60.23;101991.09;5055049;28;20431;-66
2022/11/11 10:05:12;;;;;;;6.73;4.77;;;;;;;19.78;60.13;101996.16;5077075;28;20497;-67
2022/11/11 10:07:40;;;;;;;9.80;3.93;;;;;;;19.74;60.40;102003.75;5065803;28;20448;-66
2022/11/11 10:10:43;;;;;;;7.27;4.13;;;;;;;19.70;60.67;101993.31;5076496;28;20500;-66
2022/11/11 10:13:30;;;;;;;7.77;4.50;;;;;;;19.74;60.78;101991.44;5062763;28;20400;-66
2022/11/11 10:16:01;;;;;;;7.70;4.93;;;;;;;19.71;60.56;101984.38;5073478;28;20853;-66
2022/11/11 10:18:48;;;;;;;17.10;4.80;;;;;;;19.70;60.85;101988.44;5076359;28;20489;-66
2022/11/11 10:21:15;;;;;;;7.00;3.80;;;;;;;19.72;60.59;101988.91;5034726;28;20443;-66
2022/11/11 10:23:40;;;;;;;9.13;4.50;;;;;;;19.74;60.75;101989.44;5060549;28;20439;-66
2022/11/11 10:26:35;;;;;;;7.40;4.43;;;;;;;19.74;60.78;101979.97;5045173;28;20425;-66
2022/11/11 10:29:00;;;;;;;6.47;4.50;;;;;;;19.71;60.86;101989.28;5045827;28;20260;-66
2022/11/11 10:31:26;;;;;;;7.47;4.37;;;;;;;19.72;60.79;101985.25;5079958;28;20424;-66
2022/11/11 10:33:54;;;;;;;6.87;4.20;;;;;;;19.74;60.88;101977.97;5065569;28;20175;-66
2022/11/11 10:36:20;;;;;;;11.40;3.80;;;;;;;19.73;60.74;101978.31;5079593;28;20186;-66
2022/11/11 10:38:53;;;;;;;6.40;4.10;;;;;;;19.72;60.75;101988.91;5067624;28;20425;-66
2022/11/11 10:41:44;;;;;;;9.83;4.07;;;;;;;19.69;60.85;101988.78;5062301;28;20524;-66
2022/11/11 10:44:24;;;;;;;7.23;3.80;;;;;;;19.70;61.10;101984.72;5053269;28;20448;-66
2022/11/11 10:46:57;;;;;;;5.93;4.10;;;;;;;19.70;61.12;101987.59;5062123;28;20437;-66
2022/11/11 10:49:23;;;;;;;5.17;3.97;;;;;;;19.68;61.16;101985.09;5079689;28;20512;-66
2022/11/11 10:52:05;;;;;;;5.57;3.63;;;;;;;19.66;61.23;101981.72;5064594;28;20480;-67
2022/11/11 10:54:40;;;;;;;5.17;3.57;;;;;;;19.70;61.21;101974.13;5084791;28;20428;-67
2022/11/11 10:57:21;;;;;;;6.17;4.07;;;;;;;19.72;60.84;101974.59;5080492;28;20442;-66
2022/11/11 11:00:01;;;;;;;7.20;3.73;;;;;;;19.68;61.17;101978.53;5066135;28;20448;-66
2022/11/11 11:02:30;;;;;;;6.70;3.83;;;;;;;19.70;61.38;101997.03;5060852;28;20423;-66
2022/11/11 11:05:42;;;;;;;5.70;3.50;;;;;;;19.72;61.15;101993.84;5068361;28;20489;-66
2022/11/11 11:08:16;;;;;;;5.23;3.30;;;;;;;19.68;61.37;101987.97;4996608;28;21106;-66
2022/11/11 11:10:44;;;;;;;6.77;3.83;;;;;;;19.69;61.22;101989.63;4982041;28;20447;-66
2022/11/11 11:13:35;;;;;;;6.73;4.20;;;;;;;19.71;61.42;101990.13;5042926;28;20480;-66
2022/11/11 11:16:06;;;;;;;5.87;3.43;;;;;;;19.72;61.21;101990.97;5065558;28;20975;-66
2022/11/11 11:18:31;;;;;;;7.90;4.20;;;;;;;19.64;61.63;101980.41;5060043;28;20446;-66
2022/11/11 11:21:03;;;;;;;5.13;3.50;;;;;;;19.67;61.57;101977.66;5058978;28;20424;-66
2022/11/11 11:23:45;;;;;;;6.50;3.90;;;;;;;19.71;61.33;101975.78;5066511;28;20178;-66
2022/11/11 11:26:12;;;;;;;7.67;4.20;;;;;;;19.72;61.33;101976.63;5059183;28;20435;-67
2022/11/11 11:28:57;;;;;;;5.93;3.63;;;;;;;19.69;61.62;101981.03;5071165;28;21030;-67
2022/11/11 11:31:37;;;;;;;6.63;3.80;;;;;;;19.68;61.41;101981.38;5059797;28;20428;-66
2022/11/11 11:34:02;;;;;;;6.43;3.60;;;;;;;19.66;61.70;101978.84;5077071;28;20509;-66
2022/11/11 11:36:28;;;;;;;6.23;3.53;;;;;;;19.66;61.72;101976.00;5051853;28;20432;-66
2022/11/11 11:38:53;;;;;;;5.73;3.90;;;;;;;19.65;61.73;101977.19;5060821;28;20618;-66
2022/11/11 11:41:38;;;;;;;4.70;3.27;;;;;;;19.63;61.89;101973.84;5076163;28;20306;-66
2022/11/11 11:44:27;;;;;;;5.67;3.60;;;;;;;19.67;61.63;101959.66;5057395;28;20187;-66
2022/11/11 11:47:21;;;;;;;4.87;3.17;;;;;;;19.67;61.68;101962.53;5049694;28;20518;-66
2022/11/11 11:49:57;;;;;;;5.27;3.17;;;;;;;19.66;61.77;101955.13;5088229;28;20919;-66
2022/11/11 11:52:42;;;;;;;5.00;3.10;;;;;;;19.67;61.68;101957.59;5080190;28;20468;-66
2022/11/11 11:55:25;;;;;;;4.27;3.10;;;;;;;19.67;61.64;101960.47;5081148;28;20466;-66
2022/11/11 11:57:56;;;;;;;7.50;4.33;;;;;;;19.65;61.92;101945.66;5042435;28;20429;-66
2022/11/11 12:00:28;;;;;;;5.77;3.50;;;;;;;19.67;61.90;101949.00;5077118;28;20416;-66
2022/11/11 12:03:18;;;;;;;5.40;3.67;;;;;;;19.71;61.90;101949.19;5061411;28;20448;-67
2022/11/11 12:05:48;;;;;;;7.80;3.77;;;;;;;19.66;61.69;101941.59;5066962;28;20425;-66
2022/11/11 12:08:46;;;;;;;7.80;4.10;;;;;;;19.68;61.73;101945.00;5060749;28;20549;-66
2022/11/11 12:11:17;;;;;;;5.93;3.60;;;;;;;19.68;61.83;101949.88;5077763;28;20432;-66
2022/11/11 12:14:19;;;;;;;5.57;3.50;;;;;;;19.70;61.65;101947.47;5079361;28;20519;-66
2022/11/11 12:17:03;;;;;;;6.17;3.53;;;;;;;19.72;61.89;101951.66;5066851;28;20535;-66
2022/11/11 12:19:40;;;;;;;4.83;3.33;;;;;;;19.66;62.02;101953.06;5076899;28;20500;-66
2022/11/11 12:22:24;;;;;;;5.60;2.97;;;;;;;19.64;62.13;101949.72;5064856;28;20465;-66
2022/11/11 12:24:54;;;;;;;5.10;3.20;;;;;;;19.68;61.80;101956.44;5063278;28;20565;-66
2022/11/11 12:27:34;;;;;;;5.80;3.87;;;;;;;19.68;61.95;101953.59;5043054;28;20445;-66
2022/11/11 12:30:19;;;;;;;4.43;3.17;;;;;;;19.68;62.02;101947.84;5070853;28;20792;-66
2022/11/11 12:32:58;;;;;;;4.20;3.10;;;;;;;19.68;61.91;101955.59;5049572;28;20429;-66
2022/11/11 12:35:42;;;;;;;6.43;3.50;;;;;;;19.71;61.70;101944.28;5085311;28;20419;-66
2022/11/11 12:38:13;;;;;;;4.57;3.27;;;;;;;19.67;61.95;101951.06;5076556;28;20416;-66
2022/11/11 12:40:47;;;;;;;5.70;3.07;;;;;;;19.70;62.10;101951.19;5074409;28;20444;-66
2022/11/11 12:43:18;;;;;;;6.20;3.87;;;;;;;19.69;61.37;101945.81;5059251;28;20421;-67